createdAt,value
2018-12-21T00:01:56.571Z,157.12
2018-12-21T00:04:25.109Z,120.45
2018-12-21T00:06:53.676Z,100.85
2018-12-21T00:09:22.230Z,100.47
2018-12-21T00:11:50.844Z,146.85
2018-12-21T00:14:19.499Z,199.80
2018-12-21T00:16:48.072Z,105.32
2018-12-21T00:19:16.640Z,113.65
2018-12-21T00:21:45.231Z,134.03
2018-12-21T00:24:13.905Z,121.77
2018-12-21T00:26:42.518Z,126.75
2018-12-21T00:29:11.055Z,109.00
2018-12-21T00:31:44.794Z,111.88
2018-12-21T00:34:18.522Z,113.55
2018-12-21T00:36:52.421Z,107.43
2018-12-21T00:39:26.251Z,128.60
2018-12-21T00:41:53.948Z,116.93
2018-12-21T00:44:31.820Z,120.42
2018-12-21T00:47:02.468Z,102.15
2018-12-21T00:49:31.128Z,108.10
2018-12-21T00:51:59.645Z,113.25
2018-12-21T00:54:28.245Z,101.82
2018-12-21T00:56:56.746Z,129.30
2018-12-21T00:59:25.481Z,104.95
2018-12-21T01:01:54.286Z,127.85
2018-12-21T01:04:22.977Z,115.72
2018-12-21T01:06:51.670Z,139.40
2018-12-21T01:09:20.409Z,129.93
2018-12-21T01:11:49.017Z,105.35
2018-12-21T01:14:17.741Z,116.80
2018-12-21T01:16:46.418Z,155.30
2018-12-21T01:19:15.081Z,139.32
2018-12-21T01:21:43.684Z,121.57
2018-12-21T01:24:12.232Z,119.87
2018-12-21T01:26:40.845Z,123.20
2018-12-21T01:29:09.471Z,119.67
2018-12-21T01:31:38.062Z,108.70
2018-12-21T01:34:06.635Z,126.87
2018-12-21T01:36:35.217Z,102.67
2018-12-21T01:39:04.309Z,91.65
2018-12-21T01:41:32.932Z,86.90
2018-12-21T01:44:01.449Z,111.12
2018-12-21T01:46:30.011Z,93.70
2018-12-21T01:48:58.713Z,93.45
2018-12-21T01:51:27.555Z,80.67
2018-12-21T01:53:56.217Z,84.90
2018-12-21T01:56:24.761Z,85.00
2018-12-21T01:58:53.339Z,93.15
2018-12-21T02:01:22.053Z,81.35
2018-12-21T02:03:50.621Z,84.75
2018-12-21T02:06:19.117Z,92.35
2018-12-21T02:08:47.661Z,99.70
2018-12-21T02:11:16.230Z,97.78
2018-12-21T02:13:44.926Z,99.67
2018-12-21T02:16:13.533Z,106.95
2018-12-21T02:18:42.152Z,76.70
2018-12-21T02:21:10.746Z,80.22
2018-12-21T02:23:39.348Z,79.00
2018-12-21T02:26:07.929Z,82.62
2018-12-21T02:28:36.542Z,108.72
2018-12-21T02:31:05.106Z,121.95
2018-12-21T02:33:33.661Z,110.75
2018-12-21T02:36:02.276Z,77.30
2018-12-21T02:38:30.837Z,76.40
2018-12-21T02:40:59.412Z,83.87
2018-12-21T02:43:27.974Z,98.85
2018-12-21T02:45:56.604Z,64.17
2018-12-21T02:48:25.189Z,80.03
2018-12-21T02:50:53.745Z,71.05
2018-12-21T02:53:22.451Z,100.60
2018-12-21T02:55:51.012Z,111.97
2018-12-21T02:58:19.628Z,75.97
2018-12-21T03:00:48.195Z,78.22
2018-12-21T03:03:16.751Z,69.15
2018-12-21T03:05:45.375Z,81.82
2018-12-21T03:08:13.908Z,70.62
2018-12-21T03:10:42.487Z,80.80
2018-12-21T03:13:11.004Z,69.50
2018-12-21T03:15:39.537Z,74.62
2018-12-21T03:18:08.165Z,87.27
2018-12-21T03:20:36.691Z,79.17
2018-12-21T03:23:05.264Z,69.17
2018-12-21T03:25:33.831Z,77.53
2018-12-21T03:28:02.589Z,94.05
2018-12-21T03:30:31.181Z,73.83
2018-12-21T03:32:59.769Z,71.45
2018-12-21T03:35:28.350Z,63.90
2018-12-21T03:37:56.931Z,70.50
2018-12-21T03:40:25.488Z,87.88
2018-12-21T03:42:54.091Z,75.75
2018-12-21T03:45:22.688Z,70.57
2018-12-21T03:47:51.258Z,66.92
2018-12-21T03:50:19.816Z,86.63
2018-12-21T03:52:48.407Z,104.87
2018-12-21T03:55:16.930Z,75.25
2018-12-21T03:57:45.490Z,100.62
2018-12-21T04:00:14.474Z,79.60
2018-12-21T04:02:43.201Z,89.15
2018-12-21T04:05:11.734Z,89.37
2018-12-21T04:07:40.326Z,68.52
2018-12-21T04:10:09.036Z,98.85
2018-12-21T04:12:37.584Z,114.35
2018-12-21T04:15:06.644Z,95.55
2018-12-21T04:17:35.206Z,103.00
2018-12-21T04:20:04.085Z,90.10
2018-12-21T04:22:34.194Z,88.95
2018-12-21T04:25:03.251Z,90.07
2018-12-21T04:27:31.839Z,106.75
2018-12-21T04:30:00.408Z,135.57
2018-12-21T04:32:29.017Z,120.37
2018-12-21T04:34:57.571Z,110.15
2018-12-21T04:37:26.153Z,119.17
2018-12-21T04:39:54.675Z,102.70
2018-12-21T04:42:23.207Z,112.72
2018-12-21T04:44:51.758Z,85.47
2018-12-21T04:47:20.298Z,108.95
2018-12-21T04:49:48.939Z,113.22
2018-12-21T04:52:17.500Z,119.10
2018-12-21T04:54:46.139Z,102.38
2018-12-21T04:57:14.713Z,92.15
2018-12-21T04:59:43.247Z,106.60
2018-12-21T05:02:11.805Z,109.72
2018-12-21T05:04:40.430Z,140.80
2018-12-21T05:07:12.508Z,99.70
2018-12-21T05:09:39.623Z,107.63
2018-12-21T05:12:08.253Z,90.35
2018-12-21T05:14:36.884Z,94.28
2018-12-21T05:17:05.497Z,87.75
2018-12-21T05:19:34.084Z,107.78
2018-12-21T05:22:02.684Z,116.15
2018-12-21T05:24:33.172Z,102.80
2018-12-21T05:27:01.758Z,117.00
2018-12-21T05:29:30.277Z,117.75
2018-12-21T05:31:58.916Z,109.15
2018-12-21T05:34:27.426Z,127.00
2018-12-21T05:36:55.948Z,120.92
2018-12-21T05:39:24.536Z,104.92
2018-12-21T05:41:53.124Z,143.43
2018-12-21T05:44:21.624Z,118.10
2018-12-21T05:46:50.191Z,99.67
2018-12-21T05:49:18.926Z,126.62
2018-12-21T05:51:47.542Z,110.75
2018-12-21T05:54:16.229Z,127.80
2018-12-21T05:56:44.782Z,118.85
2018-12-21T05:59:13.360Z,89.15
2018-12-21T06:01:41.988Z,91.20
2018-12-21T06:04:10.562Z,87.97
2018-12-21T06:06:39.187Z,90.80
2018-12-21T06:09:08.967Z,87.78
2018-12-21T06:11:37.699Z,81.55
2018-12-21T06:14:06.256Z,94.92
2018-12-21T06:16:34.838Z,104.78
2018-12-21T06:19:03.618Z,97.55
2018-12-21T06:21:32.182Z,103.97
2018-12-21T06:24:00.744Z,89.10
2018-12-21T06:26:29.276Z,114.00
2018-12-21T06:28:57.828Z,104.03
2018-12-21T06:31:26.443Z,102.62
2018-12-21T06:33:55.019Z,81.08
2018-12-21T06:36:23.647Z,113.62
2018-12-21T06:38:52.408Z,121.10
2018-12-21T06:41:21.152Z,114.92
2018-12-21T06:43:49.755Z,93.85
2018-12-21T06:46:18.394Z,122.82
2018-12-21T06:48:47.301Z,109.92
2018-12-21T06:51:16.025Z,98.78
2018-12-21T06:53:44.637Z,131.00
2018-12-21T06:56:13.293Z,98.87
2018-12-21T06:58:41.821Z,111.92
2018-12-21T07:01:10.444Z,119.87
2018-12-21T07:03:39.044Z,121.02
2018-12-21T07:06:07.592Z,120.45
2018-12-21T07:08:36.145Z,115.65
2018-12-21T07:11:04.847Z,151.82
2018-12-21T07:13:33.430Z,142.98
2018-12-21T07:16:02.015Z,107.63
2018-12-21T07:18:30.587Z,96.75
2018-12-21T07:20:59.185Z,152.93
2018-12-21T07:23:27.828Z,156.28
2018-12-21T07:25:56.367Z,152.65
2018-12-21T07:28:25.009Z,162.43
2018-12-21T07:30:53.824Z,130.95
2018-12-21T07:33:22.381Z,143.80
2018-12-21T07:35:50.959Z,105.92
2018-12-21T07:38:19.559Z,109.57
2018-12-21T07:40:48.188Z,134.90
2018-12-21T07:43:16.774Z,130.78
2018-12-21T07:45:45.371Z,137.32
2018-12-21T07:48:13.957Z,149.23
2018-12-21T07:50:42.557Z,149.90
2018-12-21T07:53:11.278Z,141.03
2018-12-21T07:55:39.853Z,134.32
2018-12-21T07:58:08.375Z,213.40
2018-12-21T08:00:36.998Z,136.77
2018-12-21T08:03:05.664Z,148.95
2018-12-21T08:05:34.225Z,217.35
2018-12-21T08:08:02.859Z,169.85
2018-12-21T08:10:31.487Z,147.62
2018-12-21T08:13:00.082Z,130.52
2018-12-21T08:15:29.318Z,150.55
2018-12-21T08:17:57.915Z,169.00
2018-12-21T08:20:26.496Z,127.47
2018-12-21T08:22:55.141Z,131.65
2018-12-21T08:25:23.739Z,143.85
2018-12-21T08:27:52.333Z,127.22
2018-12-21T08:30:20.921Z,149.77
2018-12-21T08:32:49.518Z,148.25
2018-12-21T08:35:18.181Z,148.47
2018-12-21T08:37:46.739Z,133.27
2018-12-21T08:40:15.341Z,161.73
2018-12-21T08:42:43.938Z,161.82
2018-12-21T08:45:12.565Z,137.35
2018-12-21T08:47:41.171Z,145.07
2018-12-21T08:50:11.072Z,1111.45
2018-12-21T08:52:39.653Z,364.10
2018-12-21T08:55:08.383Z,149.53
2018-12-21T08:57:36.982Z,132.82
2018-12-21T09:00:13.554Z,141.57
2018-12-21T09:02:42.166Z,139.18
2018-12-21T09:05:10.769Z,156.02
2018-12-21T09:07:39.340Z,156.60
2018-12-21T09:10:10.146Z,145.30
2018-12-21T09:12:39.293Z,161.85
2018-12-21T09:15:11.939Z,149.65
2018-12-21T09:17:40.541Z,149.30
2018-12-21T09:20:10.626Z,159.43
2018-12-21T09:22:39.332Z,150.95
2018-12-21T09:25:08.006Z,148.70
2018-12-21T09:27:36.590Z,156.25
2018-12-21T09:30:11.629Z,160.48
2018-12-21T09:32:40.207Z,163.87
2018-12-21T09:35:08.920Z,156.43
2018-12-21T09:37:37.551Z,165.35
2018-12-21T09:40:10.215Z,165.07
2018-12-21T09:42:39.122Z,163.92
2018-12-21T09:45:07.907Z,168.17
2018-12-21T09:47:36.539Z,164.25
2018-12-21T09:50:06.655Z,166.83
2018-12-21T09:52:35.205Z,205.57
2018-12-21T09:55:03.839Z,214.90
2018-12-21T09:57:32.421Z,182.02
2018-12-21T10:00:01.015Z,181.30
2018-12-21T10:02:35.731Z,173.93
2018-12-21T10:05:00.292Z,196.93
2018-12-21T10:07:28.897Z,190.32
2018-12-21T10:09:58.475Z,189.28
2018-12-21T10:12:26.998Z,181.78
2018-12-21T10:14:55.574Z,175.40
2018-12-21T10:17:24.221Z,186.43
2018-12-21T10:19:52.827Z,186.20
2018-12-21T10:22:21.420Z,177.23
2018-12-21T10:24:49.925Z,178.87
2018-12-21T10:27:18.491Z,188.40
2018-12-21T10:29:47.045Z,204.00
2018-12-21T10:32:15.662Z,183.13
2018-12-21T10:34:44.218Z,186.40
2018-12-21T10:37:12.766Z,194.33
2018-12-21T10:39:41.322Z,182.30
2018-12-21T10:42:09.934Z,175.53
2018-12-21T10:44:38.519Z,179.83
2018-12-21T10:47:07.113Z,153.37
2018-12-21T10:49:35.714Z,177.57
2018-12-21T10:52:04.344Z,153.83
2018-12-21T10:54:32.870Z,150.93
2018-12-21T10:57:01.457Z,146.97
2018-12-21T10:59:30.009Z,149.73
2018-12-21T11:01:58.604Z,190.27
2018-12-21T11:04:27.198Z,205.73
2018-12-21T11:06:55.956Z,189.67
2018-12-21T11:09:24.517Z,210.60
2018-12-21T11:11:53.142Z,193.53
2018-12-21T11:14:21.666Z,193.02
2018-12-21T11:16:50.276Z,196.13
2018-12-21T11:19:18.925Z,168.28
2018-12-21T11:21:47.469Z,163.90
2018-12-21T11:24:16.088Z,161.20
2018-12-21T11:26:44.646Z,168.77
2018-12-21T11:29:13.249Z,169.53
2018-12-21T11:31:41.811Z,160.97
2018-12-21T11:34:10.424Z,182.53
2018-12-21T11:36:39.215Z,185.53
2018-12-21T11:39:07.771Z,186.97
2018-12-21T11:41:36.349Z,185.17
2018-12-21T11:44:04.968Z,204.77
2018-12-21T11:46:33.537Z,203.83
2018-12-21T11:49:02.236Z,208.90
2018-12-21T11:51:30.805Z,181.50
2018-12-21T11:53:59.400Z,217.77
2018-12-21T11:56:27.944Z,238.37
2018-12-21T11:58:56.524Z,207.47
2018-12-21T12:01:25.067Z,203.73
2018-12-21T12:03:53.586Z,211.47
2018-12-21T12:06:22.144Z,177.57
2018-12-21T12:08:50.687Z,189.57
2018-12-21T12:11:19.228Z,179.90
2018-12-21T12:13:47.733Z,196.67
2018-12-21T12:16:16.303Z,200.33
2018-12-21T12:18:44.845Z,186.53
2018-12-21T12:21:13.405Z,200.37
2018-12-21T12:23:41.992Z,208.47
2018-12-21T12:26:10.576Z,192.60
2018-12-21T12:28:39.094Z,203.47
2018-12-21T12:31:07.673Z,211.80
2018-12-21T12:33:36.310Z,167.43
2018-12-21T12:36:04.947Z,150.77
2018-12-21T12:38:33.557Z,157.70
2018-12-21T12:41:06.541Z,121.93
2018-12-21T12:43:32.751Z,120.23
2018-12-21T12:46:01.301Z,100.93
2018-12-21T12:48:29.859Z,106.87
2018-12-21T12:50:58.528Z,114.83
2018-12-21T12:53:27.090Z,116.50
2018-12-21T12:55:55.754Z,118.37
2018-12-21T12:58:24.541Z,119.40
2018-12-21T13:00:53.151Z,164.43
2018-12-21T13:03:21.706Z,160.20
2018-12-21T13:05:50.354Z,160.97
2018-12-21T13:08:18.974Z,161.17
2018-12-21T13:10:47.652Z,153.97
2018-12-21T13:13:16.251Z,141.88
2018-12-21T13:15:44.861Z,142.60
2018-12-21T13:18:13.455Z,147.10
2018-12-21T13:20:42.068Z,153.68
2018-12-21T13:23:10.658Z,148.07
2018-12-21T13:25:39.252Z,142.80
2018-12-21T13:28:07.850Z,159.80
2018-12-21T13:30:36.474Z,144.40
2018-12-21T13:33:05.032Z,137.70
2018-12-21T13:35:33.607Z,146.75
2018-12-21T13:38:02.278Z,147.98
2018-12-21T13:40:30.833Z,132.67
2018-12-21T13:42:59.426Z,161.43
2018-12-21T13:45:28.015Z,142.70
2018-12-21T13:47:56.599Z,167.43
2018-12-21T13:50:25.179Z,143.52
2018-12-21T13:52:53.714Z,154.25
2018-12-21T13:55:22.456Z,146.95
2018-12-21T13:57:51.030Z,156.18
2018-12-21T14:00:19.610Z,170.70
2018-12-21T14:02:48.190Z,173.13
2018-12-21T14:05:16.785Z,182.17
2018-12-21T14:07:45.373Z,161.80
2018-12-21T14:10:14.238Z,130.45
2018-12-21T14:12:42.806Z,131.75
2018-12-21T14:15:11.384Z,120.97
2018-12-21T14:17:40.012Z,125.33
2018-12-21T14:20:11.242Z,131.15
2018-12-21T14:22:39.829Z,122.72
2018-12-21T14:25:09.069Z,123.55
2018-12-21T14:27:37.721Z,120.55
2018-12-21T14:30:13.812Z,111.55
2018-12-21T14:32:42.469Z,121.95
2018-12-21T14:35:11.074Z,125.85
2018-12-21T14:37:39.664Z,125.00
2018-12-21T14:40:08.372Z,124.97
2018-12-21T14:42:37.011Z,121.92
2018-12-21T14:45:05.977Z,123.92
2018-12-21T14:47:34.578Z,128.35
2018-12-21T14:50:03.212Z,133.75
2018-12-21T14:52:31.727Z,111.22
2018-12-21T14:55:00.291Z,116.50
2018-12-21T14:57:28.996Z,106.97
2018-12-21T14:59:57.612Z,117.47
2018-12-21T15:02:26.196Z,109.20
2018-12-21T15:04:54.811Z,114.05
2018-12-21T15:07:23.386Z,101.62
2018-12-21T15:09:52.000Z,139.32
2018-12-21T15:12:20.528Z,131.85
2018-12-21T15:14:49.124Z,147.40
2018-12-21T15:17:17.763Z,131.85
2018-12-21T15:19:46.314Z,151.87
2018-12-21T15:22:14.865Z,147.05
2018-12-21T15:24:43.383Z,153.95
2018-12-21T15:27:12.007Z,171.53
2018-12-21T15:29:41.178Z,153.50
2018-12-21T15:32:09.914Z,141.85
2018-12-21T15:34:38.491Z,185.67
2018-12-21T15:37:07.079Z,174.75
2018-12-21T15:39:35.637Z,174.00
2018-12-21T15:42:04.215Z,180.97
2018-12-21T15:44:32.776Z,159.72
2018-12-21T15:47:08.782Z,144.77
2018-12-21T15:49:32.184Z,133.75
2018-12-21T15:52:00.729Z,125.97
2018-12-21T15:54:29.341Z,122.40
2018-12-21T15:56:57.955Z,166.43
2018-12-21T15:59:26.653Z,191.50
2018-12-21T16:01:55.256Z,161.25
2018-12-21T16:04:23.912Z,151.93
2018-12-21T16:06:58.982Z,168.05
2018-12-21T16:09:27.543Z,170.10
2018-12-21T16:11:56.167Z,182.17
2018-12-21T16:14:24.736Z,181.18
2018-12-21T16:16:53.334Z,163.50
2018-12-21T16:19:22.010Z,179.07
2018-12-21T16:21:50.534Z,183.62
2018-12-21T16:24:19.057Z,168.72
2018-12-21T16:26:47.649Z,165.97
2018-12-21T16:29:16.236Z,174.50
2018-12-21T16:31:45.213Z,219.93
2018-12-21T16:34:14.214Z,192.43
2018-12-21T16:36:43.148Z,174.32
2018-12-21T16:39:12.116Z,198.38
2018-12-21T16:41:41.258Z,149.68
2018-12-21T16:44:09.986Z,147.95
2018-12-21T16:46:38.623Z,151.72
2018-12-21T16:49:07.858Z,151.47
2018-12-21T16:51:36.455Z,152.57
2018-12-21T16:54:05.013Z,151.78
2018-12-21T16:56:33.603Z,154.60
2018-12-21T16:59:02.229Z,162.47
2018-12-21T17:01:30.775Z,161.97
2018-12-21T17:03:59.356Z,175.30
2018-12-21T17:06:27.940Z,167.30
2018-12-21T17:08:56.499Z,165.55
2018-12-21T17:11:25.067Z,176.63
2018-12-21T17:13:53.664Z,154.55
2018-12-21T17:16:22.208Z,185.20
2018-12-21T17:18:50.772Z,185.48
2018-12-21T17:21:19.356Z,187.45
2018-12-21T17:23:47.954Z,174.47
2018-12-21T17:26:21.172Z,164.90
2018-12-21T17:28:47.078Z,161.30
2018-12-21T17:31:15.723Z,145.53
2018-12-21T17:33:44.327Z,175.95
2018-12-21T17:36:12.858Z,195.28
2018-12-21T17:38:41.388Z,158.97
2018-12-21T17:41:09.958Z,147.55
2018-12-21T17:43:38.599Z,162.60
2018-12-21T17:46:07.258Z,161.82
2018-12-21T17:48:35.944Z,156.02
2018-12-21T17:51:04.586Z,146.05
2018-12-21T17:53:33.152Z,138.30
2018-12-21T17:56:01.723Z,120.65
2018-12-21T17:58:30.222Z,116.53
2018-12-21T18:00:58.802Z,114.65
2018-12-21T18:03:44.119Z,123.65
2018-12-21T18:06:12.661Z,117.17
2018-12-21T18:08:41.185Z,108.20
2018-12-21T18:11:09.756Z,112.42
2018-12-21T18:13:38.324Z,114.60
2018-12-21T18:16:06.899Z,127.42
2018-12-21T18:18:35.525Z,114.60
2018-12-21T18:21:04.631Z,120.42
2018-12-21T18:23:34.663Z,121.35
2018-12-21T18:26:03.230Z,110.72
2018-12-21T18:28:31.825Z,109.55
2018-12-21T18:31:13.093Z,128.72
2018-12-21T18:33:43.932Z,116.85
2018-12-21T18:36:12.497Z,100.10
2018-12-21T18:38:41.171Z,111.37
2018-12-21T18:41:09.678Z,107.80
2018-12-21T18:43:38.470Z,106.50
2018-12-21T18:46:07.079Z,130.67
2018-12-21T18:48:35.664Z,129.38
2018-12-21T18:51:04.429Z,112.32
2018-12-21T18:53:32.971Z,124.00
2018-12-21T18:56:02.184Z,134.12
2018-12-21T18:58:30.734Z,138.92
2018-12-21T19:00:59.304Z,164.00
2018-12-21T19:03:27.890Z,127.55
2018-12-21T19:05:56.488Z,204.53
2018-12-21T19:08:25.042Z,190.12
2018-12-21T19:10:53.622Z,170.17
2018-12-21T19:13:22.185Z,164.52
2018-12-21T19:15:50.710Z,200.65
2018-12-21T19:18:19.298Z,213.32
2018-12-21T19:20:47.842Z,237.17
2018-12-21T19:23:16.428Z,154.72
2018-12-21T19:25:45.114Z,158.80
2018-12-21T19:28:14.565Z,115.52
2018-12-21T19:30:43.229Z,144.07
2018-12-21T19:33:11.776Z,138.07
2018-12-21T19:35:40.484Z,130.22
2018-12-21T19:38:09.047Z,150.45
2018-12-21T19:40:37.594Z,151.78
2018-12-21T19:43:07.641Z,170.95
2018-12-21T19:45:36.229Z,156.45
2018-12-21T19:48:04.792Z,181.37
2018-12-21T19:50:33.320Z,186.95
2018-12-21T19:53:02.672Z,216.57
2018-12-21T19:55:53.230Z,209.20
2018-12-21T19:58:21.737Z,175.03
2018-12-21T20:00:50.260Z,195.00
2018-12-21T20:03:18.779Z,212.23
2018-12-21T20:05:47.876Z,188.72
2018-12-21T20:08:16.468Z,186.92
2018-12-21T20:10:45.006Z,248.35
2018-12-21T20:13:13.524Z,237.27
2018-12-21T20:15:42.055Z,168.95
2018-12-21T20:18:11.189Z,184.70
2018-12-21T20:20:39.727Z,172.72
2018-12-21T20:23:08.349Z,212.25
2018-12-21T20:25:36.940Z,206.97
2018-12-21T20:28:05.745Z,211.22
2018-12-21T20:30:34.434Z,186.85
2018-12-21T20:33:03.392Z,215.15
2018-12-21T20:35:32.072Z,172.82
2018-12-21T20:38:01.563Z,175.18
2018-12-21T20:40:30.108Z,190.12
2018-12-21T20:42:58.861Z,229.57
2018-12-21T20:45:27.486Z,206.87
2018-12-21T20:47:56.014Z,171.43
2018-12-21T20:50:24.563Z,191.50
2018-12-21T20:52:53.217Z,223.55
2018-12-21T20:55:21.874Z,169.07
2018-12-21T20:57:52.824Z,208.45
2018-12-21T21:00:21.425Z,168.90
2018-12-21T21:02:50.024Z,229.87
2018-12-21T21:05:18.542Z,184.97
2018-12-21T21:07:47.104Z,157.93
2018-12-21T21:10:15.621Z,179.87
2018-12-21T21:12:44.155Z,175.62
2018-12-21T21:15:13.395Z,169.22
2018-12-21T21:17:41.917Z,181.25
2018-12-21T21:20:12.800Z,183.40
2018-12-21T21:22:41.432Z,179.82
2018-12-21T21:25:10.068Z,175.22
2018-12-21T21:27:38.620Z,221.47
2018-12-21T21:30:14.428Z,200.47
2018-12-21T21:32:43.011Z,226.92
2018-12-21T21:35:11.546Z,199.32
2018-12-21T21:37:40.228Z,194.50
2018-12-21T21:40:12.629Z,187.70
2018-12-21T21:42:41.257Z,196.22
2018-12-21T21:45:09.915Z,172.00
2018-12-21T21:47:38.456Z,189.07
2018-12-21T21:50:08.054Z,165.10
2018-12-21T21:52:36.762Z,192.28
2018-12-21T21:55:05.515Z,189.28
2018-12-21T21:57:39.210Z,162.47
2018-12-21T22:00:13.312Z,155.82
2018-12-21T22:02:42.183Z,166.03
2018-12-21T22:05:10.767Z,150.57
2018-12-21T22:07:39.284Z,166.03
2018-12-21T22:10:09.934Z,173.78
2018-12-21T22:12:38.547Z,281.82
2018-12-21T22:15:08.819Z,192.03
2018-12-21T22:17:37.512Z,182.35
2018-12-21T22:20:08.944Z,258.30
2018-12-21T22:22:37.586Z,247.65
2018-12-21T22:25:06.476Z,279.38
2018-12-21T22:27:35.127Z,187.75
2018-12-21T22:30:11.431Z,219.93
2018-12-21T22:32:40.059Z,366.23
2018-12-21T22:35:09.221Z,213.32
2018-12-21T22:37:37.794Z,369.27
2018-12-21T22:40:07.228Z,500.18
2018-12-21T22:42:35.852Z,292.40
2018-12-21T22:45:04.835Z,236.20
2018-12-21T22:47:33.560Z,262.32
2018-12-21T22:50:02.167Z,188.85
2018-12-21T22:52:30.787Z,248.30
2018-12-21T22:54:59.426Z,227.85
2018-12-21T22:57:28.029Z,251.18
2018-12-21T22:59:56.550Z,316.33
2018-12-21T23:02:25.065Z,289.25
2018-12-21T23:04:53.718Z,268.95
2018-12-21T23:07:22.369Z,276.67
2018-12-21T23:09:50.898Z,322.07
2018-12-21T23:12:19.448Z,336.18
2018-12-21T23:14:48.076Z,401.20
2018-12-21T23:17:16.658Z,341.17
2018-12-21T23:19:45.225Z,355.52
2018-12-21T23:22:13.822Z,275.68
2018-12-21T23:24:42.491Z,323.50
2018-12-21T23:27:11.280Z,430.75
2018-12-21T23:29:40.244Z,268.33
2018-12-21T23:32:08.909Z,277.27
2018-12-21T23:34:37.870Z,313.90
2018-12-21T23:37:06.740Z,284.40
2018-12-21T23:39:35.305Z,283.87
2018-12-21T23:42:04.115Z,259.07
2018-12-21T23:44:32.736Z,344.55
2018-12-21T23:47:01.468Z,348.38
2018-12-21T23:49:30.369Z,228.60
2018-12-21T23:51:59.055Z,304.65
2018-12-21T23:54:27.890Z,289.20
2018-12-21T23:56:56.622Z,323.73
2018-12-21T23:59:25.298Z,237.48
